Time;durP1;ratioP1;P1;durP2;ratioP2;P2;SDS_P1;SDS_P2;PMS_P1;PMS_P2;Temp;Humidity;BMP_temperature;BMP_pressure;BME280_temperature;BME280_humidity;BME280_pressure;Samples;Min_cycle;Max_cycle;Signal;HPM_P1;HPM_P2
2023/06/17 00:01:05;;;;;;;9.20;6.03;;;;;;;26.25;100.00;99423.13;38207831;23;20024;-75
2023/06/17 00:16:09;;;;;;;9.20;5.55;;;;;;;26.14;100.00;99426.94;38204377;23;20546;-76
2023/06/17 00:31:11;;;;;;;8.93;5.50;;;;;;;25.82;100.00;99416.06;38204426;23;20048;-75
2023/06/17 00:46:27;;;;;;;10.88;6.28;;;;;;;25.72;100.00;99392.78;38203202;23;20417;-75
2023/06/17 01:01:30;;;;;;;15.32;7.30;;;;;;;25.07;100.00;99377.72;38204949;23;20029;-75
2023/06/17 01:16:33;;;;;;;10.02;6.50;;;;;;;25.38;100.00;99376.81;38205390;23;20025;-76
2023/06/17 01:31:35;;;;;;;14.37;6.63;;;;;;;25.10;100.00;99373.88;38207311;23;20344;-74
2023/06/17 01:46:39;;;;;;;13.33;6.97;;;;;;;25.31;100.00;99368.41;38203517;23;20028;-75
2023/06/17 02:01:41;;;;;;;10.63;6.30;;;;;;;25.11;100.00;99369.81;38199045;23;20026;-76
2023/06/17 02:16:46;;;;;;;18.60;6.85;;;;;;;25.27;100.00;99379.09;38197203;23;20057;-75
2023/06/17 02:31:48;;;;;;;10.05;5.47;;;;;;;24.85;100.00;99387.22;38199374;23;20044;-75
2023/06/17 02:46:50;;;;;;;10.52;5.47;;;;;;;25.05;100.00;99411.59;38195781;23;20026;-74
2023/06/17 03:01:52;;;;;;;12.88;5.90;;;;;;;25.26;100.00;99403.34;38182416;23;20521;-75
2023/06/17 03:16:58;;;;;;;9.48;5.82;;;;;;;25.61;100.00;99421.53;38207226;23;20059;-75
2023/06/17 03:32:03;;;;;;;14.00;6.43;;;;;;;25.73;100.00;99416.53;38209163;23;20723;-77
2023/06/17 03:47:09;;;;;;;10.48;7.13;;;;;;;26.03;100.00;99416.81;38209665;23;20165;-76
2023/06/17 04:02:11;;;;;;;12.88;6.45;;;;;;;26.68;100.00;99422.59;38207359;23;20017;-75
2023/06/17 04:17:13;;;;;;;9.27;5.95;;;;;;;27.22;100.00;99427.19;38205915;23;20032;-77
2023/06/17 04:32:15;;;;;;;8.85;5.47;;;;;;;27.77;96.25;99432.44;38207754;23;20029;-74
2023/06/17 04:47:19;;;;;;;9.17;5.60;;;;;;;28.41;90.86;99454.50;38203246;23;20028;-75
2023/06/17 05:02:21;;;;;;;11.25;4.75;;;;;;;28.82;87.66;99453.41;38177008;23;20472;-76
2023/06/17 05:17:23;;;;;;;9.73;4.93;;;;;;;29.29;82.71;99465.97;38177363;23;20057;-75
2023/06/17 05:32:25;;;;;;;14.83;5.40;;;;;;;29.56;79.90;99474.66;38207285;23;20108;-75
2023/06/17 05:47:31;;;;;;;7.80;4.07;;;;;;;30.09;78.56;99463.22;38179093;23;20030;-77
2023/06/17 06:02:33;;;;;;;5.93;3.30;;;;;;;30.42;75.06;99471.59;38200174;23;20022;-75
2023/06/17 06:17:35;;;;;;;;;;;;;;;31.58;68.17;99475.50;38200337;23;20508;-75
2023/06/17 06:32:41;;;;;;;10.90;4.07;;;;;;;31.74;69.57;99471.22;38201827;23;20342;-77
2023/06/17 06:47:45;;;;;;;7.03;3.63;;;;;;;32.07;65.77;99458.41;38175616;23;20026;-76
2023/06/17 07:02:48;;;;;;;5.28;3.45;;;;;;;32.20;65.28;99446.81;38201369;23;20064;-78
2023/06/17 07:17:52;;;;;;;6.93;3.45;;;;;;;32.72;62.58;99460.56;38200004;23;20030;-77
2023/06/17 07:32:55;;;;;;;6.65;3.95;;;;;;;32.87;63.89;99451.88;38171504;23;20026;-76
2023/06/17 07:47:57;;;;;;;7.72;3.85;;;;;;;33.26;62.37;99451.94;38211216;23;20030;-77
2023/06/17 08:02:59;;;;;;;8.93;3.65;;;;;;;33.61;60.60;99460.78;38210795;23;20026;-76
2023/06/17 08:18:02;;;;;;;11.50;3.83;;;;;;;34.22;57.30;99457.38;38199178;23;20363;-75
2023/06/17 08:33:04;;;;;;;8.10;3.53;;;;;;;34.61;54.28;99451.56;38207172;23;20479;-77
2023/06/17 08:48:06;;;;;;;7.68;3.45;;;;;;;35.20;52.73;99458.25;38204591;23;20021;-75
2023/06/17 09:03:10;;;;;;;7.95;3.05;;;;;;;35.49;50.23;99453.13;38205281;23;20083;-75
2023/06/17 09:18:15;;;;;;;4.22;3.25;;;;;;;35.87;51.68;99445.66;38197546;23;20025;-75
2023/06/17 09:33:19;;;;;;;8.13;3.22;;;;;;;36.91;49.47;99440.56;38198253;23;20029;-76
2023/06/17 09:48:24;;;;;;;11.52;3.38;;;;;;;36.31;51.87;99438.44;38197580;23;20029;-79
2023/06/17 10:03:27;;;;;;;6.47;3.38;;;;;;;36.77;48.76;99438.41;38174835;23;20355;-76
2023/06/17 10:18:33;;;;;;;12.07;4.28;;;;;;;37.71;47.29;99443.69;38200274;23;20032;-76
2023/06/17 10:33:35;;;;;;;4.57;2.58;;;;;;;36.16;48.53;99423.41;38206209;23;20022;-76
2023/06/17 10:48:37;;;;;;;4.32;2.42;;;;;;;36.74;46.23;99411.34;38175536;23;20029;-78
2023/06/17 11:03:40;;;;;;;7.85;2.42;;;;;;;37.30;46.21;99407.47;38194501;23;20125;-74
2023/06/17 11:18:44;;;;;;;5.72;2.22;;;;;;;35.30;51.81;99399.72;38203811;23;20053;-77
2023/06/17 11:33:47;;;;;;;6.28;2.28;;;;;;;34.73;50.46;99393.16;38208246;23;20026;-77
2023/06/17 11:48:49;;;;;;;5.10;2.20;;;;;;;35.07;51.40;99382.69;38211801;23;20454;-78
2023/06/17 12:03:55;;;;;;;5.05;2.60;;;;;;;34.64;52.85;99377.06;38213529;23;20017;-76
2023/06/17 12:18:58;;;;;;;5.18;2.53;;;;;;;34.31;52.62;99362.16;38206565;23;20057;-76
2023/06/17 12:34:00;;;;;;;5.32;2.30;;;;;;;34.61;52.65;99355.75;38207934;23;20022;-76
2023/06/17 12:49:02;;;;;;;6.32;2.65;;;;;;;34.37;52.73;99340.03;38210425;23;20026;-78
2023/06/17 13:04:04;;;;;;;5.47;2.30;;;;;;;34.38;50.33;99338.72;38181946;23;20021;-76
2023/06/17 13:19:07;;;;;;;4.60;2.38;;;;;;;34.56;51.75;99331.44;38206529;23;20076;-77
2023/06/17 13:34:09;;;;;;;5.82;3.38;;;;;;;34.13;51.86;99339.88;38204101;23;20470;-76
2023/06/17 13:49:11;;;;;;;5.72;2.70;;;;;;;34.17;54.01;99325.31;38204635;23;20034;-75
2023/06/17 14:04:14;;;;;;;4.80;2.33;;;;;;;33.63;53.15;99322.31;38172971;23;20049;-77
2023/06/17 14:19:16;;;;;;;8.80;2.58;;;;;;;33.44;55.02;99342.81;38176761;23;20022;-76
2023/06/17 14:34:18;;;;;;;9.73;6.05;;;;;;;33.02;53.50;99340.50;38203717;23;20018;-76
2023/06/17 14:49:20;;;;;;;11.60;6.68;;;;;;;32.76;55.00;99342.88;38178245;23;20022;-75
2023/06/17 15:04:22;;;;;;;9.50;3.38;;;;;;;31.12;80.33;99358.31;38207191;23;20033;-77
2023/06/17 15:19:24;;;;;;;12.63;4.05;;;;;;;30.32;99.94;99322.34;38206444;23;20080;-78
2023/06/17 15:34:26;;;;;;;;;;;;;;;30.67;100.00;99304.28;38207687;23;20028;-75
2023/06/17 15:49:28;;;;;;;23.58;13.02;;;;;;;30.77;100.00;99270.72;38177049;23;20330;-76
2023/06/17 16:04:40;;;;;;;7.72;5.38;;;;;;;30.96;100.00;99253.28;38182256;23;20471;-75
2023/06/17 16:19:42;;;;;;;11.77;5.50;;;;;;;30.69;100.00;99262.44;38214287;23;20025;-75
2023/06/17 16:34:44;;;;;;;9.63;4.85;;;;;;;30.59;100.00;99297.28;38212898;23;20745;-75
2023/06/17 16:49:46;;;;;;;;;;;;;;;30.81;100.00;99341.84;38212158;23;20025;-75
2023/06/17 17:04:48;;;;;;;7.63;4.85;;;;;;;30.39;100.00;99364.28;38208082;23;19939;-75
2023/06/17 17:19:50;;;;;;;;;;;;;;;30.39;82.89;99377.53;38210731;23;20032;-75
2023/06/17 17:34:52;;;;;;;27.58;15.95;;;;;;;30.04;84.77;99402.63;38205017;23;19916;-77
2023/06/17 17:49:54;;;;;;;11.52;5.25;;;;;;;29.87;79.88;99438.91;38206427;23;20037;-75
2023/06/17 18:04:56;;;;;;;;;;;;;;;30.16;75.60;99458.88;38204001;23;20044;-78
2023/06/17 18:19:58;;;;;;;11.07;6.25;;;;;;;29.57;80.91;99467.00;38204267;23;19916;-80
2023/06/17 18:35:02;;;;;;;8.65;4.78;;;;;;;29.33;81.55;99471.91;38177425;23;20032;-75
2023/06/17 18:50:05;;;;;;;;;;;;;;;29.45;81.89;99478.63;38202905;23;20036;-77
2023/06/17 19:05:08;;;;;;;17.30;9.37;;;;;;;29.09;81.52;99472.53;38188553;23;20291;-76
2023/06/17 19:20:11;;;;;;;10.23;5.43;;;;;;;28.84;81.61;99473.13;38184513;23;20025;-76
2023/06/17 19:35:13;;;;;;;13.50;7.25;;;;;;;28.61;82.86;99480.75;38159226;23;20022;-75
2023/06/17 19:50:15;;;;;;;9.50;5.50;;;;;;;28.45;81.72;99487.66;38163061;23;20029;-77
2023/06/17 20:05:18;;;;;;;7.57;4.95;;;;;;;28.42;81.61;99499.91;38196850;23;20358;-75
2023/06/17 20:20:20;;;;;;;11.82;5.40;;;;;;;28.36;82.16;99502.13;38193456;23;20641;-76
2023/06/17 20:35:23;;;;;;;10.23;6.13;;;;;;;28.05;86.26;99506.91;38169428;23;20060;-77
2023/06/17 20:50:26;;;;;;;8.83;6.87;;;;;;;27.79;88.58;99507.94;38191493;23;20025;-77
2023/06/17 21:05:28;;;;;;;15.63;8.98;;;;;;;27.72;91.04;99500.28;38186726;23;20032;-76
2023/06/17 21:20:31;;;;;;;16.17;6.77;;;;;;;27.71;92.18;99507.91;38190138;23;20033;-77
2023/06/17 21:35:32;;;;;;;10.60;6.33;;;;;;;27.74;90.92;99500.47;38187659;23;20022;-76
2023/06/17 21:50:35;;;;;;;9.57;5.90;;;;;;;27.78;92.39;99484.13;38190525;23;20363;-76
2023/06/17 22:05:37;;;;;;;;;;;;;;;27.91;93.49;99483.97;38197717;23;20490;-74
2023/06/17 22:20:39;;;;;;;9.05;5.05;;;;;;;27.41;94.04;99461.09;38200660;23;19920;-75
2023/06/17 22:35:41;;;;;;;17.42;10.75;;;;;;;27.34;94.28;99472.97;38195125;23;20026;-74
2023/06/17 22:50:43;;;;;;;11.85;6.05;;;;;;;27.00;96.44;99461.25;38196508;23;20022;-76
2023/06/17 23:05:45;;;;;;;11.17;6.57;;;;;;;26.70;98.18;99470.84;38197592;23;20029;-74
2023/06/17 23:20:47;;;;;;;8.43;6.15;;;;;;;26.56;99.46;99461.09;38210043;23;20035;-75
2023/06/17 23:35:49;;;;;;;9.85;6.57;;;;;;;26.50;100.00;99457.69;38205391;23;20028;-74
2023/06/17 23:50:51;;;;;;;12.52;6.85;;;;;;;26.35;100.00;99447.19;38179900;23;20040;-75
